sensor_id;sensor_type;location;lat;lon;timestamp;P1;durP1;ratioP1;P2;durP2;ratioP2
58978;SDS011;44763;50.464;30.612;2023-12-04T00:00:57;8.90;;;5.10;;
58978;SDS011;44763;50.464;30.612;2023-12-04T00:02:59;8.00;;;6.50;;
58978;SDS011;44763;50.464;30.612;2023-12-04T00:05:01;12.30;;;7.30;;
58978;SDS011;44763;50.464;30.612;2023-12-04T00:07:03;9.20;;;6.50;;
58978;SDS011;44763;50.464;30.612;2023-12-04T00:09:05;9.70;;;6.60;;
58978;SDS011;44763;50.464;30.612;2023-12-04T00:11:09;9.20;;;6.40;;
58978;SDS011;44763;50.464;30.612;2023-12-04T00:13:11;9.40;;;7.00;;
58978;SDS011;44763;50.464;30.612;2023-12-04T00:15:13;7.50;;;6.60;;
58978;SDS011;44763;50.464;30.612;2023-12-04T00:17:14;8.10;;;6.30;;
58978;SDS011;44763;50.464;30.612;2023-12-04T00:19:16;10.30;;;5.80;;
58978;SDS011;44763;50.464;30.612;2023-12-04T00:21:18;6.50;;;5.80;;
58978;SDS011;44763;50.464;30.612;2023-12-04T00:23:21;8.90;;;7.10;;
58978;SDS011;44763;50.464;30.612;2023-12-04T00:25:23;9.10;;;6.90;;
58978;SDS011;44763;50.464;30.612;2023-12-04T00:27:27;8.30;;;6.30;;
58978;SDS011;44763;50.464;30.612;2023-12-04T00:29:29;9.00;;;6.60;;
58978;SDS011;44763;50.464;30.612;2023-12-04T00:31:31;9.00;;;6.90;;
58978;SDS011;44763;50.464;30.612;2023-12-04T00:33:34;8.70;;;7.80;;
58978;SDS011;44763;50.464;30.612;2023-12-04T00:35:37;11.60;;;6.90;;
58978;SDS011;44763;50.464;30.612;2023-12-04T00:37:38;8.90;;;5.60;;
58978;SDS011;44763;50.464;30.612;2023-12-04T00:39:40;7.10;;;5.70;;
58978;SDS011;44763;50.464;30.612;2023-12-04T00:41:42;8.10;;;6.00;;
58978;SDS011;44763;50.464;30.612;2023-12-04T00:43:44;9.00;;;6.70;;
58978;SDS011;44763;50.464;30.612;2023-12-04T00:45:46;8.70;;;6.60;;
58978;SDS011;44763;50.464;30.612;2023-12-04T00:47:48;9.40;;;7.00;;
58978;SDS011;44763;50.464;30.612;2023-12-04T00:49:51;10.40;;;6.80;;
58978;SDS011;44763;50.464;30.612;2023-12-04T00:51:53;8.60;;;6.20;;
58978;SDS011;44763;50.464;30.612;2023-12-04T00:53:55;13.00;;;7.20;;
58978;SDS011;44763;50.464;30.612;2023-12-04T00:55:57;8.90;;;6.70;;
58978;SDS011;44763;50.464;30.612;2023-12-04T00:57:59;10.40;;;7.00;;
58978;SDS011;44763;50.464;30.612;2023-12-04T01:00:01;7.50;;;6.10;;
58978;SDS011;44763;50.464;30.612;2023-12-04T01:02:06;11.40;;;7.40;;
58978;SDS011;44763;50.464;30.612;2023-12-04T01:04:09;8.40;;;6.30;;
58978;SDS011;44763;50.464;30.612;2023-12-04T01:06:19;10.20;;;7.40;;
58978;SDS011;44763;50.464;30.612;2023-12-04T01:08:28;8.10;;;6.20;;
58978;SDS011;44763;50.464;30.612;2023-12-04T01:10:30;8.50;;;7.10;;
58978;SDS011;44763;50.464;30.612;2023-12-04T01:12:31;9.60;;;7.20;;
58978;SDS011;44763;50.464;30.612;2023-12-04T01:14:34;8.70;;;6.60;;
58978;SDS011;44763;50.464;30.612;2023-12-04T01:16:40;9.40;;;6.50;;
58978;SDS011;44763;50.464;30.612;2023-12-04T01:18:42;10.60;;;7.00;;
58978;SDS011;44763;50.464;30.612;2023-12-04T01:20:46;9.60;;;7.90;;
58978;SDS011;44763;50.464;30.612;2023-12-04T01:22:48;9.40;;;7.40;;
58978;SDS011;44763;50.464;30.612;2023-12-04T01:24:49;10.00;;;7.50;;
58978;SDS011;44763;50.464;30.612;2023-12-04T01:26:54;8.70;;;6.70;;
58978;SDS011;44763;50.464;30.612;2023-12-04T01:28:56;10.50;;;7.60;;
58978;SDS011;44763;50.464;30.612;2023-12-04T01:30:58;10.10;;;6.70;;
58978;SDS011;44763;50.464;30.612;2023-12-04T01:33:00;11.20;;;7.80;;
58978;SDS011;44763;50.464;30.612;2023-12-04T01:35:05;9.60;;;6.50;;
58978;SDS011;44763;50.464;30.612;2023-12-04T01:37:08;10.50;;;6.40;;
58978;SDS011;44763;50.464;30.612;2023-12-04T01:39:10;7.20;;;6.20;;
58978;SDS011;44763;50.464;30.612;2023-12-04T01:41:12;10.50;;;7.50;;
58978;SDS011;44763;50.464;30.612;2023-12-04T01:43:14;14.40;;;7.40;;
58978;SDS011;44763;50.464;30.612;2023-12-04T01:45:16;9.90;;;7.60;;
58978;SDS011;44763;50.464;30.612;2023-12-04T01:47:18;11.30;;;7.00;;
58978;SDS011;44763;50.464;30.612;2023-12-04T01:49:21;9.50;;;7.00;;
58978;SDS011;44763;50.464;30.612;2023-12-04T01:51:23;12.40;;;7.00;;
58978;SDS011;44763;50.464;30.612;2023-12-04T01:53:27;9.40;;;6.60;;
58978;SDS011;44763;50.464;30.612;2023-12-04T01:55:31;11.70;;;8.90;;
58978;SDS011;44763;50.464;30.612;2023-12-04T01:57:35;9.60;;;7.20;;
58978;SDS011;44763;50.464;30.612;2023-12-04T01:59:38;10.90;;;7.80;;
58978;SDS011;44763;50.464;30.612;2023-12-04T02:01:40;10.50;;;7.60;;
58978;SDS011;44763;50.464;30.612;2023-12-04T02:03:42;12.90;;;9.10;;
58978;SDS011;44763;50.464;30.612;2023-12-04T02:05:44;11.80;;;7.70;;
58978;SDS011;44763;50.464;30.612;2023-12-04T02:07:47;9.90;;;7.30;;
58978;SDS011;44763;50.464;30.612;2023-12-04T02:09:50;12.20;;;7.70;;
58978;SDS011;44763;50.464;30.612;2023-12-04T02:11:52;10.60;;;7.30;;
58978;SDS011;44763;50.464;30.612;2023-12-04T02:13:59;7.80;;;6.30;;
58978;SDS011;44763;50.464;30.612;2023-12-04T02:16:02;11.10;;;7.60;;
58978;SDS011;44763;50.464;30.612;2023-12-04T02:18:09;7.60;;;6.40;;
58978;SDS011;44763;50.464;30.612;2023-12-04T02:20:12;9.00;;;7.30;;
58978;SDS011;44763;50.464;30.612;2023-12-04T02:22:16;15.30;;;9.80;;
58978;SDS011;44763;50.464;30.612;2023-12-04T02:24:20;13.60;;;9.10;;
58978;SDS011;44763;50.464;30.612;2023-12-04T02:26:27;10.70;;;8.10;;
58978;SDS011;44763;50.464;30.612;2023-12-04T02:28:34;8.60;;;6.90;;
58978;SDS011;44763;50.464;30.612;2023-12-04T02:30:38;10.70;;;7.80;;
58978;SDS011;44763;50.464;30.612;2023-12-04T02:32:45;11.20;;;8.20;;
58978;SDS011;44763;50.464;30.612;2023-12-04T02:34:48;12.60;;;8.00;;
58978;SDS011;44763;50.464;30.612;2023-12-04T02:36:52;12.30;;;7.50;;
58978;SDS011;44763;50.464;30.612;2023-12-04T02:38:56;12.90;;;8.20;;
58978;SDS011;44763;50.464;30.612;2023-12-04T02:40:59;8.80;;;7.30;;
58978;SDS011;44763;50.464;30.612;2023-12-04T02:43:02;12.60;;;9.20;;
58978;SDS011;44763;50.464;30.612;2023-12-04T02:45:04;11.20;;;7.50;;
58978;SDS011;44763;50.464;30.612;2023-12-04T02:47:52;13.50;;;8.40;;
58978;SDS011;44763;50.464;30.612;2023-12-04T02:49:54;12.20;;;8.40;;
58978;SDS011;44763;50.464;30.612;2023-12-04T02:51:56;13.20;;;8.40;;
58978;SDS011;44763;50.464;30.612;2023-12-04T02:53:59;12.00;;;8.10;;
58978;SDS011;44763;50.464;30.612;2023-12-04T02:56:01;13.00;;;9.70;;
58978;SDS011;44763;50.464;30.612;2023-12-04T02:58:03;11.00;;;8.50;;
58978;SDS011;44763;50.464;30.612;2023-12-04T03:00:05;12.40;;;7.90;;
58978;SDS011;44763;50.464;30.612;2023-12-04T03:02:08;12.90;;;9.00;;
58978;SDS011;44763;50.464;30.612;2023-12-04T03:04:10;11.00;;;8.40;;
58978;SDS011;44763;50.464;30.612;2023-12-04T03:06:13;11.90;;;8.40;;
58978;SDS011;44763;50.464;30.612;2023-12-04T03:08:17;11.70;;;8.40;;
58978;SDS011;44763;50.464;30.612;2023-12-04T03:10:20;10.50;;;7.50;;
58978;SDS011;44763;50.464;30.612;2023-12-04T03:12:22;10.30;;;8.10;;
58978;SDS011;44763;50.464;30.612;2023-12-04T03:14:25;10.90;;;8.10;;
58978;SDS011;44763;50.464;30.612;2023-12-04T03:16:28;10.60;;;8.10;;
58978;SDS011;44763;50.464;30.612;2023-12-04T03:18:31;11.30;;;8.10;;
58978;SDS011;44763;50.464;30.612;2023-12-04T03:20:33;13.30;;;8.10;;
58978;SDS011;44763;50.464;30.612;2023-12-04T03:22:38;10.40;;;8.20;;
58978;SDS011;44763;50.464;30.612;2023-12-04T03:24:40;12.80;;;7.50;;
58978;SDS011;44763;50.464;30.612;2023-12-04T03:26:42;10.70;;;8.20;;
58978;SDS011;44763;50.464;30.612;2023-12-04T03:28:44;9.40;;;7.70;;
58978;SDS011;44763;50.464;30.612;2023-12-04T03:30:46;10.60;;;7.30;;
58978;SDS011;44763;50.464;30.612;2023-12-04T03:32:48;11.70;;;9.20;;
58978;SDS011;44763;50.464;30.612;2023-12-04T03:34:50;12.60;;;8.80;;
58978;SDS011;44763;50.464;30.612;2023-12-04T03:36:52;11.00;;;8.90;;
58978;SDS011;44763;50.464;30.612;2023-12-04T03:38:54;13.30;;;9.40;;
58978;SDS011;44763;50.464;30.612;2023-12-04T03:40:56;9.50;;;7.80;;
58978;SDS011;44763;50.464;30.612;2023-12-04T03:43:00;14.30;;;9.00;;
58978;SDS011;44763;50.464;30.612;2023-12-04T03:45:01;12.30;;;8.40;;
58978;SDS011;44763;50.464;30.612;2023-12-04T03:47:04;11.40;;;8.00;;
58978;SDS011;44763;50.464;30.612;2023-12-04T03:49:06;12.20;;;8.70;;
58978;SDS011;44763;50.464;30.612;2023-12-04T03:51:08;13.10;;;8.30;;
58978;SDS011;44763;50.464;30.612;2023-12-04T03:53:10;10.30;;;7.00;;
58978;SDS011;44763;50.464;30.612;2023-12-04T03:55:12;11.40;;;8.30;;
58978;SDS011;44763;50.464;30.612;2023-12-04T03:57:15;11.70;;;8.00;;
58978;SDS011;44763;50.464;30.612;2023-12-04T03:59:18;14.40;;;8.70;;
58978;SDS011;44763;50.464;30.612;2023-12-04T04:01:20;10.30;;;7.00;;
58978;SDS011;44763;50.464;30.612;2023-12-04T04:03:22;11.60;;;8.40;;
58978;SDS011;44763;50.464;30.612;2023-12-04T04:05:24;12.30;;;8.50;;
58978;SDS011;44763;50.464;30.612;2023-12-04T04:07:26;10.30;;;7.30;;
58978;SDS011;44763;50.464;30.612;2023-12-04T04:09:30;14.20;;;7.70;;
58978;SDS011;44763;50.464;30.612;2023-12-04T04:11:32;11.10;;;9.00;;
58978;SDS011;44763;50.464;30.612;2023-12-04T04:13:36;13.50;;;9.40;;
58978;SDS011;44763;50.464;30.612;2023-12-04T04:15:39;13.80;;;9.20;;
58978;SDS011;44763;50.464;30.612;2023-12-04T04:17:41;9.90;;;7.80;;
58978;SDS011;44763;50.464;30.612;2023-12-04T04:19:44;13.70;;;8.50;;
58978;SDS011;44763;50.464;30.612;2023-12-04T04:21:46;15.30;;;9.40;;
58978;SDS011;44763;50.464;30.612;2023-12-04T04:23:48;12.40;;;9.70;;
58978;SDS011;44763;50.464;30.612;2023-12-04T04:25:50;11.20;;;8.40;;
58978;SDS011;44763;50.464;30.612;2023-12-04T04:27:52;9.60;;;8.00;;
58978;SDS011;44763;50.464;30.612;2023-12-04T04:29:54;11.60;;;9.80;;
58978;SDS011;44763;50.464;30.612;2023-12-04T04:31:56;14.60;;;10.70;;
58978;SDS011;44763;50.464;30.612;2023-12-04T04:33:58;14.00;;;10.10;;
58978;SDS011;44763;50.464;30.612;2023-12-04T04:36:00;14.80;;;9.90;;
58978;SDS011;44763;50.464;30.612;2023-12-04T04:38:03;13.40;;;10.00;;
58978;SDS011;44763;50.464;30.612;2023-12-04T04:40:06;13.60;;;9.60;;
58978;SDS011;44763;50.464;30.612;2023-12-04T04:42:08;16.10;;;10.80;;
58978;SDS011;44763;50.464;30.612;2023-12-04T04:44:10;15.20;;;10.10;;
58978;SDS011;44763;50.464;30.612;2023-12-04T04:46:12;14.50;;;10.10;;
58978;SDS011;44763;50.464;30.612;2023-12-04T04:48:14;14.80;;;11.10;;
58978;SDS011;44763;50.464;30.612;2023-12-04T04:50:16;13.50;;;10.40;;
58978;SDS011;44763;50.464;30.612;2023-12-04T04:52:18;14.50;;;10.40;;
58978;SDS011;44763;50.464;30.612;2023-12-04T04:54:21;13.90;;;9.70;;
58978;SDS011;44763;50.464;30.612;2023-12-04T04:56:23;14.70;;;10.80;;
58978;SDS011;44763;50.464;30.612;2023-12-04T04:58:24;12.70;;;9.80;;
58978;SDS011;44763;50.464;30.612;2023-12-04T05:00:26;17.70;;;10.50;;
58978;SDS011;44763;50.464;30.612;2023-12-04T05:02:29;14.80;;;10.70;;
58978;SDS011;44763;50.464;30.612;2023-12-04T05:04:31;15.20;;;9.30;;
58978;SDS011;44763;50.464;30.612;2023-12-04T05:06:33;12.80;;;9.70;;
58978;SDS011;44763;50.464;30.612;2023-12-04T05:08:36;13.80;;;8.90;;
58978;SDS011;44763;50.464;30.612;2023-12-04T05:10:38;12.80;;;9.90;;
58978;SDS011;44763;50.464;30.612;2023-12-04T05:12:41;15.70;;;10.60;;
58978;SDS011;44763;50.464;30.612;2023-12-04T05:14:43;14.70;;;11.00;;
58978;SDS011;44763;50.464;30.612;2023-12-04T05:16:45;10.90;;;8.40;;
58978;SDS011;44763;50.464;30.612;2023-12-04T05:18:47;14.00;;;9.30;;
58978;SDS011;44763;50.464;30.612;2023-12-04T05:20:50;12.60;;;9.20;;
58978;SDS011;44763;50.464;30.612;2023-12-04T05:22:54;10.80;;;8.90;;
58978;SDS011;44763;50.464;30.612;2023-12-04T05:24:56;13.30;;;9.60;;
58978;SDS011;44763;50.464;30.612;2023-12-04T05:26:58;14.70;;;10.20;;
58978;SDS011;44763;50.464;30.612;2023-12-04T05:29:00;13.90;;;10.10;;
58978;SDS011;44763;50.464;30.612;2023-12-04T05:31:02;13.10;;;9.70;;
58978;SDS011;44763;50.464;30.612;2023-12-04T05:33:06;15.00;;;9.60;;
58978;SDS011;44763;50.464;30.612;2023-12-04T05:35:08;13.50;;;9.10;;
58978;SDS011;44763;50.464;30.612;2023-12-04T05:37:10;15.40;;;10.00;;
58978;SDS011;44763;50.464;30.612;2023-12-04T05:39:12;12.50;;;9.20;;
58978;SDS011;44763;50.464;30.612;2023-12-04T05:41:14;11.90;;;8.30;;
58978;SDS011;44763;50.464;30.612;2023-12-04T05:43:16;11.40;;;9.10;;
58978;SDS011;44763;50.464;30.612;2023-12-04T05:45:18;14.40;;;9.80;;
58978;SDS011;44763;50.464;30.612;2023-12-04T05:47:21;10.90;;;8.00;;
58978;SDS011;44763;50.464;30.612;2023-12-04T05:49:23;13.20;;;10.00;;
58978;SDS011;44763;50.464;30.612;2023-12-04T05:51:27;14.80;;;9.80;;
58978;SDS011;44763;50.464;30.612;2023-12-04T05:53:33;13.20;;;9.50;;
58978;SDS011;44763;50.464;30.612;2023-12-04T05:55:35;13.40;;;9.00;;
58978;SDS011;44763;50.464;30.612;2023-12-04T05:57:40;11.30;;;10.00;;
58978;SDS011;44763;50.464;30.612;2023-12-04T05:59:42;13.30;;;9.10;;
58978;SDS011;44763;50.464;30.612;2023-12-04T06:01:44;15.10;;;10.60;;
58978;SDS011;44763;50.464;30.612;2023-12-04T06:03:46;14.60;;;9.80;;
58978;SDS011;44763;50.464;30.612;2023-12-04T06:05:49;15.00;;;11.40;;
58978;SDS011;44763;50.464;30.612;2023-12-04T06:07:53;15.50;;;11.00;;
58978;SDS011;44763;50.464;30.612;2023-12-04T06:09:55;15.60;;;11.50;;
58978;SDS011;44763;50.464;30.612;2023-12-04T06:11:58;14.70;;;12.50;;
58978;SDS011;44763;50.464;30.612;2023-12-04T06:14:00;14.80;;;10.10;;
58978;SDS011;44763;50.464;30.612;2023-12-04T06:16:02;17.40;;;11.00;;
58978;SDS011;44763;50.464;30.612;2023-12-04T06:18:04;18.80;;;11.80;;
58978;SDS011;44763;50.464;30.612;2023-12-04T06:20:06;16.80;;;12.10;;
58978;SDS011;44763;50.464;30.612;2023-12-04T06:22:09;17.50;;;11.90;;
58978;SDS011;44763;50.464;30.612;2023-12-04T06:24:12;17.80;;;12.50;;
58978;SDS011;44763;50.464;30.612;2023-12-04T06:26:14;20.90;;;11.50;;
58978;SDS011;44763;50.464;30.612;2023-12-04T06:28:16;18.90;;;11.70;;
58978;SDS011;44763;50.464;30.612;2023-12-04T06:30:19;20.10;;;13.30;;
58978;SDS011;44763;50.464;30.612;2023-12-04T06:32:22;23.10;;;14.80;;
58978;SDS011;44763;50.464;30.612;2023-12-04T06:34:25;23.40;;;15.30;;
58978;SDS011;44763;50.464;30.612;2023-12-04T06:36:28;24.80;;;15.60;;
58978;SDS011;44763;50.464;30.612;2023-12-04T06:38:33;27.30;;;16.50;;
58978;SDS011;44763;50.464;30.612;2023-12-04T06:40:41;26.60;;;16.60;;
58978;SDS011;44763;50.464;30.612;2023-12-04T06:42:43;22.80;;;15.50;;
58978;SDS011;44763;50.464;30.612;2023-12-04T06:44:46;28.40;;;16.80;;
58978;SDS011;44763;50.464;30.612;2023-12-04T06:46:48;26.60;;;17.40;;
58978;SDS011;44763;50.464;30.612;2023-12-04T06:50:56;27.00;;;16.70;;
58978;SDS011;44763;50.464;30.612;2023-12-04T06:52:58;28.00;;;16.70;;
58978;SDS011;44763;50.464;30.612;2023-12-04T06:55:00;27.70;;;15.80;;
58978;SDS011;44763;50.464;30.612;2023-12-04T06:57:02;28.40;;;15.80;;
58978;SDS011;44763;50.464;30.612;2023-12-04T06:59:05;28.90;;;18.50;;
58978;SDS011;44763;50.464;30.612;2023-12-04T07:01:06;28.90;;;17.40;;
58978;SDS011;44763;50.464;30.612;2023-12-04T07:03:09;27.60;;;17.70;;
58978;SDS011;44763;50.464;30.612;2023-12-04T07:05:11;25.50;;;16.50;;
58978;SDS011;44763;50.464;30.612;2023-12-04T07:07:14;25.90;;;16.00;;
58978;SDS011;44763;50.464;30.612;2023-12-04T07:09:16;31.10;;;18.60;;
58978;SDS011;44763;50.464;30.612;2023-12-04T07:11:18;26.50;;;16.30;;
58978;SDS011;44763;50.464;30.612;2023-12-04T07:13:20;29.80;;;18.40;;
58978;SDS011;44763;50.464;30.612;2023-12-04T07:15:22;29.20;;;17.30;;
58978;SDS011;44763;50.464;30.612;2023-12-04T07:17:24;28.10;;;16.20;;
58978;SDS011;44763;50.464;30.612;2023-12-04T07:19:26;31.70;;;18.10;;
58978;SDS011;44763;50.464;30.612;2023-12-04T07:21:29;28.20;;;18.00;;
58978;SDS011;44763;50.464;30.612;2023-12-04T07:23:31;30.20;;;18.60;;
58978;SDS011;44763;50.464;30.612;2023-12-04T07:25:34;30.90;;;18.20;;
58978;SDS011;44763;50.464;30.612;2023-12-04T07:27:36;26.60;;;18.80;;
58978;SDS011;44763;50.464;30.612;2023-12-04T07:29:40;27.20;;;16.60;;
58978;SDS011;44763;50.464;30.612;2023-12-04T07:31:42;26.70;;;17.30;;
58978;SDS011;44763;50.464;30.612;2023-12-04T07:33:44;26.60;;;16.40;;
58978;SDS011;44763;50.464;30.612;2023-12-04T07:35:46;29.30;;;18.50;;
58978;SDS011;44763;50.464;30.612;2023-12-04T07:37:49;29.70;;;18.70;;
58978;SDS011;44763;50.464;30.612;2023-12-04T07:39:51;33.40;;;18.00;;
58978;SDS011;44763;50.464;30.612;2023-12-04T07:41:53;29.90;;;17.30;;
58978;SDS011;44763;50.464;30.612;2023-12-04T07:43:55;28.30;;;17.90;;
58978;SDS011;44763;50.464;30.612;2023-12-04T07:45:57;29.70;;;18.70;;
58978;SDS011;44763;50.464;30.612;2023-12-04T07:47:59;32.20;;;19.40;;
58978;SDS011;44763;50.464;30.612;2023-12-04T07:50:03;29.90;;;19.00;;
58978;SDS011;44763;50.464;30.612;2023-12-04T07:52:06;28.40;;;17.50;;
58978;SDS011;44763;50.464;30.612;2023-12-04T07:54:08;31.30;;;21.80;;
58978;SDS011;44763;50.464;30.612;2023-12-04T07:56:11;32.50;;;20.90;;
58978;SDS011;44763;50.464;30.612;2023-12-04T07:58:14;30.20;;;20.20;;
58978;SDS011;44763;50.464;30.612;2023-12-04T08:00:16;34.60;;;22.50;;
58978;SDS011;44763;50.464;30.612;2023-12-04T08:02:24;30.80;;;23.10;;
58978;SDS011;44763;50.464;30.612;2023-12-04T08:04:26;35.60;;;23.80;;
58978;SDS011;44763;50.464;30.612;2023-12-04T08:06:29;32.50;;;22.60;;
58978;SDS011;44763;50.464;30.612;2023-12-04T08:08:31;33.30;;;20.90;;
58978;SDS011;44763;50.464;30.612;2023-12-04T08:10:34;28.10;;;18.10;;
58978;SDS011;44763;50.464;30.612;2023-12-04T08:12:36;30.60;;;18.40;;
58978;SDS011;44763;50.464;30.612;2023-12-04T08:14:38;27.00;;;18.50;;
58978;SDS011;44763;50.464;30.612;2023-12-04T08:16:40;31.80;;;20.30;;
58978;SDS011;44763;50.464;30.612;2023-12-04T08:18:42;29.70;;;19.00;;
58978;SDS011;44763;50.464;30.612;2023-12-04T08:20:45;31.90;;;19.60;;
58978;SDS011;44763;50.464;30.612;2023-12-04T08:22:48;26.30;;;18.60;;
58978;SDS011;44763;50.464;30.612;2023-12-04T08:24:51;29.90;;;20.30;;
58978;SDS011;44763;50.464;30.612;2023-12-04T08:26:54;29.70;;;18.20;;
58978;SDS011;44763;50.464;30.612;2023-12-04T08:28:58;34.30;;;19.10;;
58978;SDS011;44763;50.464;30.612;2023-12-04T08:31:00;25.70;;;16.10;;
58978;SDS011;44763;50.464;30.612;2023-12-04T08:33:03;29.60;;;17.90;;
58978;SDS011;44763;50.464;30.612;2023-12-04T08:35:05;27.80;;;17.00;;
58978;SDS011;44763;50.464;30.612;2023-12-04T08:37:08;28.40;;;18.40;;
58978;SDS011;44763;50.464;30.612;2023-12-04T08:39:10;27.10;;;17.60;;
58978;SDS011;44763;50.464;30.612;2023-12-04T08:41:12;26.30;;;17.60;;
58978;SDS011;44763;50.464;30.612;2023-12-04T08:43:14;30.20;;;20.10;;
58978;SDS011;44763;50.464;30.612;2023-12-04T08:45:16;29.20;;;18.90;;
58978;SDS011;44763;50.464;30.612;2023-12-04T08:47:20;21.80;;;16.70;;
58978;SDS011;44763;50.464;30.612;2023-12-04T08:49:22;30.20;;;20.50;;
58978;SDS011;44763;50.464;30.612;2023-12-04T08:51:33;28.40;;;17.50;;
58978;SDS011;44763;50.464;30.612;2023-12-04T08:53:35;23.30;;;16.70;;
58978;SDS011;44763;50.464;30.612;2023-12-04T08:55:38;24.00;;;16.40;;
58978;SDS011;44763;50.464;30.612;2023-12-04T08:57:40;25.60;;;17.50;;
58978;SDS011;44763;50.464;30.612;2023-12-04T08:59:43;24.80;;;17.00;;
58978;SDS011;44763;50.464;30.612;2023-12-04T09:01:45;28.90;;;20.20;;
58978;SDS011;44763;50.464;30.612;2023-12-04T09:03:47;27.10;;;17.60;;
58978;SDS011;44763;50.464;30.612;2023-12-04T09:05:49;25.60;;;17.40;;
58978;SDS011;44763;50.464;30.612;2023-12-04T09:07:54;26.90;;;18.80;;
58978;SDS011;44763;50.464;30.612;2023-12-04T09:09:59;25.50;;;17.30;;
58978;SDS011;44763;50.464;30.612;2023-12-04T09:12:11;24.60;;;17.20;;
58978;SDS011;44763;50.464;30.612;2023-12-04T09:14:13;29.80;;;18.30;;
58978;SDS011;44763;50.464;30.612;2023-12-04T09:16:16;24.60;;;17.00;;
58978;SDS011;44763;50.464;30.612;2023-12-04T09:18:19;29.40;;;19.30;;
58978;SDS011;44763;50.464;30.612;2023-12-04T09:20:21;28.50;;;19.10;;
58978;SDS011;44763;50.464;30.612;2023-12-04T09:22:23;27.70;;;17.70;;
58978;SDS011;44763;50.464;30.612;2023-12-04T09:24:30;33.50;;;20.10;;
58978;SDS011;44763;50.464;30.612;2023-12-04T09:26:33;26.70;;;20.10;;
58978;SDS011;44763;50.464;30.612;2023-12-04T09:28:35;30.60;;;20.10;;
58978;SDS011;44763;50.464;30.612;2023-12-04T09:30:38;29.80;;;19.40;;
58978;SDS011;44763;50.464;30.612;2023-12-04T09:32:41;32.90;;;20.50;;
58978;SDS011;44763;50.464;30.612;2023-12-04T09:34:43;31.80;;;20.40;;
58978;SDS011;44763;50.464;30.612;2023-12-04T09:36:45;28.10;;;19.20;;
58978;SDS011;44763;50.464;30.612;2023-12-04T09:38:48;31.70;;;19.40;;
58978;SDS011;44763;50.464;30.612;2023-12-04T09:40:51;31.00;;;20.90;;
58978;SDS011;44763;50.464;30.612;2023-12-04T09:42:54;34.60;;;21.60;;
58978;SDS011;44763;50.464;30.612;2023-12-04T09:44:57;33.30;;;21.90;;
58978;SDS011;44763;50.464;30.612;2023-12-04T09:47:01;33.30;;;21.90;;
58978;SDS011;44763;50.464;30.612;2023-12-04T09:49:05;31.30;;;19.90;;
58978;SDS011;44763;50.464;30.612;2023-12-04T09:51:09;29.90;;;20.00;;
58978;SDS011;44763;50.464;30.612;2023-12-04T09:53:12;31.60;;;20.80;;
58978;SDS011;44763;50.464;30.612;2023-12-04T09:55:15;36.40;;;22.20;;
58978;SDS011;44763;50.464;30.612;2023-12-04T09:57:18;30.50;;;20.50;;
58978;SDS011;44763;50.464;30.612;2023-12-04T09:59:21;29.20;;;20.70;;
58978;SDS011;44763;50.464;30.612;2023-12-04T10:01:29;29.40;;;20.30;;
58978;SDS011;44763;50.464;30.612;2023-12-04T10:03:35;27.40;;;19.40;;
58978;SDS011;44763;50.464;30.612;2023-12-04T10:05:41;30.30;;;18.80;;
58978;SDS011;44763;50.464;30.612;2023-12-04T10:07:46;27.90;;;16.80;;
58978;SDS011;44763;50.464;30.612;2023-12-04T10:09:47;24.70;;;17.00;;
58978;SDS011;44763;50.464;30.612;2023-12-04T10:11:50;24.80;;;15.50;;
58978;SDS011;44763;50.464;30.612;2023-12-04T10:13:54;17.60;;;12.70;;
58978;SDS011;44763;50.464;30.612;2023-12-04T10:16:00;17.40;;;12.70;;
58978;SDS011;44763;50.464;30.612;2023-12-04T10:18:03;17.00;;;11.40;;
58978;SDS011;44763;50.464;30.612;2023-12-04T10:20:09;17.90;;;11.60;;
58978;SDS011;44763;50.464;30.612;2023-12-04T10:22:13;14.80;;;10.20;;
58978;SDS011;44763;50.464;30.612;2023-12-04T10:24:29;14.90;;;10.50;;
58978;SDS011;44763;50.464;30.612;2023-12-04T10:26:34;13.60;;;9.90;;
58978;SDS011;44763;50.464;30.612;2023-12-04T10:28:36;10.70;;;9.20;;
58978;SDS011;44763;50.464;30.612;2023-12-04T10:30:40;12.90;;;8.70;;
58978;SDS011;44763;50.464;30.612;2023-12-04T10:32:43;7.50;;;5.70;;
58978;SDS011;44763;50.464;30.612;2023-12-04T10:34:45;6.80;;;5.80;;
58978;SDS011;44763;50.464;30.612;2023-12-04T10:36:48;8.50;;;6.70;;
58978;SDS011;44763;50.464;30.612;2023-12-04T10:38:59;8.40;;;6.10;;
58978;SDS011;44763;50.464;30.612;2023-12-04T10:41:11;8.60;;;6.70;;
58978;SDS011;44763;50.464;30.612;2023-12-04T10:43:16;8.90;;;7.50;;
58978;SDS011;44763;50.464;30.612;2023-12-04T10:45:19;10.10;;;8.40;;
58978;SDS011;44763;50.464;30.612;2023-12-04T10:49:27;7.10;;;5.90;;
58978;SDS011;44763;50.464;30.612;2023-12-04T10:51:33;6.70;;;5.60;;
58978;SDS011;44763;50.464;30.612;2023-12-04T10:53:36;8.00;;;7.00;;
58978;SDS011;44763;50.464;30.612;2023-12-04T10:55:38;6.20;;;5.50;;
58978;SDS011;44763;50.464;30.612;2023-12-04T10:57:42;6.90;;;5.40;;
58978;SDS011;44763;50.464;30.612;2023-12-04T10:59:46;8.70;;;5.90;;
58978;SDS011;44763;50.464;30.612;2023-12-04T11:01:49;7.40;;;6.50;;
58978;SDS011;44763;50.464;30.612;2023-12-04T11:03:56;9.00;;;7.40;;
58978;SDS011;44763;50.464;30.612;2023-12-04T11:06:01;9.80;;;8.70;;
58978;SDS011;44763;50.464;30.612;2023-12-04T11:08:07;10.80;;;8.70;;
58978;SDS011;44763;50.464;30.612;2023-12-04T11:10:22;11.10;;;8.50;;
58978;SDS011;44763;50.464;30.612;2023-12-04T11:12:26;11.90;;;9.60;;
58978;SDS011;44763;50.464;30.612;2023-12-04T11:14:42;15.20;;;12.60;;
58978;SDS011;44763;50.464;30.612;2023-12-04T11:16:49;16.20;;;11.90;;
58978;SDS011;44763;50.464;30.612;2023-12-04T11:21:28;18.30;;;14.50;;
58978;SDS011;44763;50.464;30.612;2023-12-04T11:23:32;15.10;;;12.40;;
58978;SDS011;44763;50.464;30.612;2023-12-04T11:25:35;13.20;;;10.70;;
58978;SDS011;44763;50.464;30.612;2023-12-04T11:27:38;10.30;;;9.20;;
58978;SDS011;44763;50.464;30.612;2023-12-04T11:29:41;9.70;;;7.70;;
58978;SDS011;44763;50.464;30.612;2023-12-04T11:31:44;7.40;;;6.60;;
58978;SDS011;44763;50.464;30.612;2023-12-04T11:33:47;7.30;;;6.60;;
58978;SDS011;44763;50.464;30.612;2023-12-04T11:35:50;8.60;;;6.40;;
58978;SDS011;44763;50.464;30.612;2023-12-04T11:37:53;8.20;;;6.20;;
58978;SDS011;44763;50.464;30.612;2023-12-04T11:39:55;6.80;;;6.10;;
58978;SDS011;44763;50.464;30.612;2023-12-04T11:41:58;10.50;;;7.40;;
58978;SDS011;44763;50.464;30.612;2023-12-04T11:44:01;11.40;;;8.50;;
58978;SDS011;44763;50.464;30.612;2023-12-04T11:46:08;9.70;;;8.00;;
58978;SDS011;44763;50.464;30.612;2023-12-04T11:48:11;16.70;;;9.00;;
58978;SDS011;44763;50.464;30.612;2023-12-04T11:50:17;11.50;;;9.50;;
58978;SDS011;44763;50.464;30.612;2023-12-04T11:52:43;8.20;;;7.40;;
58978;SDS011;44763;50.464;30.612;2023-12-04T11:54:57;8.20;;;7.40;;
58978;SDS011;44763;50.464;30.612;2023-12-04T11:59:10;10.40;;;8.10;;
58978;SDS011;44763;50.464;30.612;2023-12-04T12:01:16;13.60;;;8.50;;
58978;SDS011;44763;50.464;30.612;2023-12-04T12:03:20;11.10;;;8.70;;
58978;SDS011;44763;50.464;30.612;2023-12-04T12:05:24;8.40;;;7.40;;
58978;SDS011;44763;50.464;30.612;2023-12-04T12:07:28;10.30;;;7.30;;